KSJX

Beaver Island Airport

Beaver Island, Michigan, USA
METAR KSJX 182135Z AUTO 32004KT 10SM CLR 24/16 A3001 RMK AO2 T02420155
Observed Flight Rules
Aug-18 @ 21:35 UTC (18 minutes ago) Visual Flight Rules
Wind Visibility Clouds
320° at 4 knots 10 miles
  • Clear skies
Temperatures Readings
Current 24°C / 75°F
Dewpoint 16°C / 61°F
Humidity 61%
Altimeter 30.01" Hg
Pressure 1016 hPa
Elevation 204
METAR KSJX 182135Z AUTO 32004KT 10SM CLR 24/16 A3001 RMK AO2 T02420155
Observed Flight Rules
Aug-18 @ 21:35 UTC
(18 minutes ago)
VFR
Wind Visibility
320° at 4 knots 10 miles
Clouds
  • Clear skies
Temperature Dewpoint
24°C / 75°F 16°C / 61°F
Humidity Altimeter Pressure
61% 30.01" Hg 1016 hPa